Time;durP1;ratioP1;P1;durP2;ratioP2;P2;SDS_P1;SDS_P2;PMS_P1;PMS_P2;Temp;Humidity;BMP_temperature;BMP_pressure;BME280_temperature;BME280_humidity;BME280_pressure;Samples;Min_cycle;Max_cycle;Signal;HPM_P1;HPM_P2
2022/01/13 00:01:43;;;;;;;4.70;3.00;;;;;;;;;;5055629;28;20017;-49
2022/01/13 00:04:12;;;;;;;3.92;2.97;;;15.00;95.80;;;;;;5055945;28;20036;-49
2022/01/13 00:06:38;;;;;;;3.95;2.88;;;;;;;;;;5055491;28;20021;-48
2022/01/13 00:09:05;;;;;;;5.78;3.25;;;15.00;95.80;;;;;;5055538;28;20036;-47
2022/01/13 00:11:31;;;;;;;4.15;3.00;;;;;;;;;;5055499;28;20022;-48
2022/01/13 00:22:16;;;;;;;5.38;3.55;;;;;;;;;;5055328;28;20411;-49
2022/01/13 00:24:45;;;;;;;4.57;2.90;;;;;;;;;;5055547;28;20028;-49
2022/01/13 00:27:13;;;;;;;5.40;3.17;;;;;;;;;;5055458;28;20078;-49
2022/01/13 00:29:42;;;;;;;5.55;3.40;;;;;;;;;;5055166;28;20033;-49
2022/01/13 00:32:10;;;;;;;4.82;3.60;;;14.90;96.00;;;;;;5055144;28;20468;-48
2022/01/13 00:34:36;;;;;;;4.78;3.65;;;;;;;;;;5055025;28;20029;-50
2022/01/13 00:37:02;;;;;;;6.15;3.28;;;;;;;;;;5055213;28;20402;-50
2022/01/13 00:39:28;;;;;;;3.80;3.00;;;;;;;;;;5054958;28;20029;-49
2022/01/13 00:41:54;;;;;;;4.65;3.13;;;;;;;;;;5054896;28;20066;-50
2022/01/13 00:44:21;;;;;;;5.82;3.45;;;;;;;;;;5055067;28;20032;-49
2022/01/13 00:46:59;;;;;;;5.13;3.40;;;14.90;96.10;;;;;;5054701;28;20036;-51
2022/01/13 00:49:25;;;;;;;5.32;3.60;;;;;;;;;;5054911;28;20085;-50
2022/01/13 00:51:51;;;;;;;5.60;3.70;;;;;;;;;;5054741;28;20033;-50
2022/01/13 00:54:17;;;;;;;5.30;3.60;;;;;;;;;;5054702;28;20029;-49
2022/01/13 00:56:43;;;;;;;7.55;3.83;;;;;;;;;;5054511;28;20044;-49
2022/01/13 00:59:12;;;;;;;7.75;4.00;;;15.00;96.00;;;;;;5054527;28;20495;-49
2022/01/13 01:01:41;;;;;;;5.75;4.05;;;14.80;96.00;;;;;;5054467;28;20029;-50
2022/01/13 01:04:07;;;;;;;7.20;4.10;;;14.80;94.60;;;;;;5053464;28;20068;-49
2022/01/13 01:06:34;;;;;;;6.97;4.00;;;14.80;94.40;;;;;;5054286;28;20032;-48
2022/01/13 01:09:00;;;;;;;6.00;3.95;;;;;;;;;;5054383;28;20108;-50
2022/01/13 01:11:26;;;;;;;6.47;4.07;;;;;;;;;;5054385;28;20044;-48
2022/01/13 01:13:53;;;;;;;5.97;3.83;;;;;;;;;;5054511;28;20029;-48
2022/01/13 01:16:19;;;;;;;5.45;4.03;;;;;;;;;;5054164;28;20041;-49
2022/01/13 01:29:02;;;;;;;6.53;3.97;;;;;;;;;;5060759;28;20370;-49
2022/01/13 01:31:31;;;;;;;6.25;3.95;;;;;;;;;;5053957;28;20025;-48
2022/01/13 01:36:31;;;;;;;7.00;4.60;;;;;;;;;;5054103;28;20052;-48
2022/01/13 01:38:59;;;;;;;5.40;4.20;;;;;;;;;;5053769;28;20162;-48
2022/01/13 01:41:25;;;;;;;6.40;4.03;;;;;;;;;;5053792;28;20056;-49
2022/01/13 01:43:52;;;;;;;6.80;4.47;;;;;;;;;;5053769;28;20492;-48
2022/01/13 01:46:18;;;;;;;6.95;4.65;;;;;;;;;;5053696;28;20063;-48
2022/01/13 01:48:44;;;;;;;7.25;4.18;;;;;;;;;;5053671;28;20029;-48
2022/01/13 01:51:10;;;;;;;8.65;5.00;;;;;;;;;;5053544;28;20070;-47
2022/01/13 01:53:36;;;;;;;6.72;4.93;;;;;;;;;;5053620;28;20130;-48
2022/01/13 01:56:02;;;;;;;7.43;4.60;;;;;;;;;;5053478;28;20142;-48
2022/01/13 01:58:29;;;;;;;7.22;4.80;;;;;;;;;;5053763;28;20487;-47
2022/01/13 02:00:55;;;;;;;6.72;4.88;;;14.60;94.30;;;;;;5053487;28;20053;-49
2022/01/13 02:03:23;;;;;;;7.18;4.75;;;14.60;95.90;;;;;;5053257;28;20519;-49
2022/01/13 02:05:49;;;;;;;7.15;4.68;;;;;;;;;;5053623;28;20028;-48
2022/01/13 02:08:15;;;;;;;9.60;5.15;;;;;;;;;;5053328;28;20473;-48
2022/01/13 02:10:43;;;;;;;6.30;4.80;;;;;;;;;;5053286;28;20159;-49
2022/01/13 02:13:12;;;;;;;6.85;4.25;;;;;;;;;;5053146;28;20035;-49
2022/01/13 02:15:59;;;;;;;7.63;4.65;;;;;;;;;;5052775;28;20083;-51
2022/01/13 02:18:29;;;;;;;7.53;4.72;;;14.50;95.90;;;;;;5053305;28;20033;-51
2022/01/13 02:20:55;;;;;;;7.97;4.90;;;;;;;;;;5053088;28;20450;-49
2022/01/13 02:23:38;;;;;;;8.32;5.05;;;14.50;93.20;;;;;;5052888;28;20024;-49
2022/01/13 02:26:05;;;;;;;7.70;4.93;;;;;;;;;;5052913;28;20079;-47
2022/01/13 02:28:31;;;;;;;8.15;5.07;;;;;;;;;;5052878;28;20025;-49
2022/01/13 02:30:58;;;;;;;8.02;5.18;;;;;;;;;;5052834;28;20153;-49
2022/01/13 02:33:24;;;;;;;6.95;4.60;;;;;;;;;;5052817;28;20452;-49
2022/01/13 02:35:50;;;;;;;7.60;4.57;;;;;;;;;;5052728;28;20061;-50
2022/01/13 02:38:16;;;;;;;7.68;5.13;;;;;;;;;;5052706;28;20475;-50
2022/01/13 02:40:42;;;;;;;9.30;5.47;;;;;;;;;;5052950;28;20439;-50
2022/01/13 02:43:08;;;;;;;10.07;5.82;;;;;;;;;;5052554;28;20108;-49
2022/01/13 02:45:38;;;;;;;8.00;5.32;;;;;;;;;;5052548;28;20442;-47
2022/01/13 02:50:52;;;;;;;9.55;5.85;;;14.40;95.90;;;;;;5052447;28;20048;-50
2022/01/13 02:53:18;;;;;;;9.73;5.30;;;;;;;;;;5052251;28;20025;-49
2022/01/13 02:55:44;;;;;;;8.63;5.57;;;;;;;;;;5052317;28;20216;-50
2022/01/13 02:58:13;;;;;;;8.85;5.65;;;14.40;95.90;;;;;;5052359;28;20037;-50
2022/01/13 03:00:40;;;;;;;10.45;6.35;;;;;;;;;;5052577;28;20024;-48
2022/01/13 03:03:06;;;;;;;9.77;5.57;;;;;;;;;;5052165;28;20064;-49
2022/01/13 03:05:37;;;;;;;9.82;5.85;;;;;;;;;;5052255;28;20024;-52
2022/01/13 03:08:03;;;;;;;8.05;5.78;;;;;;;;;;5052534;28;20025;-49
2022/01/13 03:10:29;;;;;;;10.60;6.28;;;;;;;;;;5052133;28;20032;-49
2022/01/13 03:12:56;;;;;;;11.48;6.07;;;;;;;;;;5052415;28;20060;-50
2022/01/13 03:15:22;;;;;;;9.82;5.95;;;;;;;;;;5052130;28;20025;-49
2022/01/13 03:17:48;;;;;;;9.82;5.90;;;;;;;;;;5052004;28;20087;-49
2022/01/13 03:20:14;;;;;;;8.90;5.55;;;;;;;;;;5052009;28;20521;-49
2022/01/13 03:22:40;;;;;;;9.95;6.43;;;;;;;;;;5051995;28;20159;-49
2022/01/13 03:25:06;;;;;;;9.90;6.10;;;;;;;;;;5052240;28;20458;-50
2022/01/13 03:27:36;;;;;;;8.88;6.07;;;;;;;;;;5051415;28;20036;-51
2022/01/13 03:30:08;;;;;;;9.65;5.88;;;14.30;93.10;;;;;;5051937;28;20029;-49
2022/01/13 03:32:34;;;;;;;9.73;5.43;;;;;;;;;;5051775;28;20036;-50
2022/01/13 03:35:00;;;;;;;9.50;5.53;;;;;;;;;;5051957;28;20075;-50
2022/01/13 03:37:27;;;;;;;9.23;6.00;;;;;;;;;;5051643;28;20056;-50
2022/01/13 03:39:53;;;;;;;9.30;6.13;;;;;;;;;;5051858;28;20064;-50
2022/01/13 03:42:19;;;;;;;9.65;6.47;;;;;;;;;;5051724;28;20033;-50
2022/01/13 03:44:45;;;;;;;8.48;5.95;;;;;;;;;;5051751;28;20025;-50
2022/01/13 03:47:11;;;;;;;8.68;5.32;;;;;;;;;;5051811;28;20388;-50
2022/01/13 03:49:37;;;;;;;9.75;5.68;;;;;;;;;;5051943;28;20225;-49
2022/01/13 03:52:04;;;;;;;9.07;6.20;;;;;;;;;;5051827;28;20337;-48
2022/01/13 03:55:10;;;;;;;9.50;5.70;;;14.20;95.80;;;;;;5051752;28;20028;-47
2022/01/13 03:58:04;;;;;;;11.32;6.63;;;14.20;93.00;;;;;;5020197;28;20049;-47
2022/01/13 04:00:58;;;;;;;10.40;6.68;;;14.20;93.00;;;;;;5051464;28;20096;-48
2022/01/13 04:03:24;;;;;;;9.27;6.50;;;;;;;;;;5051338;28;20527;-50
2022/01/13 04:06:21;;;;;;;7.93;5.32;;;14.20;93.00;;;;;;5051614;28;20029;-49
2022/01/13 04:08:49;;;;;;;10.18;6.45;;;14.20;95.80;;;;;;5039285;28;20510;-50
2022/01/13 04:11:18;;;;;;;10.48;6.78;;;14.10;95.80;;;;;;5051794;28;20024;-50
2022/01/13 04:13:56;;;;;;;10.85;6.63;;;;;;;;;;5051793;28;20401;-49
2022/01/13 04:16:27;;;;;;;9.13;6.03;;;14.20;95.80;;;;;;5051505;28;20452;-49
2022/01/13 04:19:00;;;;;;;10.18;6.28;;;14.10;95.70;;;;;;5051812;28;20035;-48
2022/01/13 04:21:26;;;;;;;10.32;6.53;;;;;;;;;;5051722;28;20100;-50
2022/01/13 04:23:56;;;;;;;9.27;6.43;;;;;;;;;;5051434;28;20117;-49
2022/01/13 04:26:27;;;;;;;9.88;5.70;;;;;;;;;;5051379;28;20017;-50
2022/01/13 04:29:01;;;;;;;9.15;5.93;;;;;;;;;;5051739;28;20396;-48
2022/01/13 04:31:28;;;;;;;9.95;6.53;;;;;;;;;;5051368;28;20033;-49
2022/01/13 04:33:54;;;;;;;10.77;6.97;;;;;;;;;;5051655;28;20074;-49
2022/01/13 04:36:20;;;;;;;7.82;5.88;;;;;;;;;;5051198;28;20033;-50
2022/01/13 04:38:46;;;;;;;8.25;6.05;;;;;;;;;;5052281;28;20403;-53
2022/01/13 04:41:12;;;;;;;9.30;6.15;;;;;;;;;;5054928;28;20096;-50
2022/01/13 04:43:38;;;;;;;11.00;6.53;;;;;;;;;;5055103;28;20029;-49
2022/01/13 04:46:04;;;;;;;9.80;6.53;;;;;;;;;;5055211;28;20033;-48
2022/01/13 04:48:29;;;;;;;10.70;6.55;;;;;;;;;;5054848;28;20052;-50
2022/01/13 04:50:55;;;;;;;10.77;6.40;;;;;;;;;;5054660;28;20071;-50
2022/01/13 04:53:21;;;;;;;9.52;6.28;;;;;;;;;;5054599;28;20033;-50
2022/01/13 04:55:52;;;;;;;8.55;5.63;;;;;;;;;;5054433;28;20104;-49
2022/01/13 04:58:21;;;;;;;8.63;5.95;;;14.00;95.70;;;;;;5054557;28;20056;-50
2022/01/13 05:00:48;;;;;;;9.32;6.40;;;;;;;;;;5054424;28;20013;-50
2022/01/13 05:03:13;;;;;;;8.02;5.60;;;;;;;;;;5054233;28;20048;-48
2022/01/13 05:05:39;;;;;;;8.82;6.25;;;;;;;;;;5054432;28;20538;-51
2022/01/13 05:08:05;;;;;;;10.25;6.30;;;;;;;;;;5054453;28;20047;-50
2022/01/13 05:10:31;;;;;;;10.80;6.22;;;;;;;;;;5054390;28;20025;-50
2022/01/13 05:12:58;;;;;;;9.55;6.10;;;;;;;;;;5054281;28;20450;-50
2022/01/13 05:15:27;;;;;;;9.93;6.30;;;;;;;;;;5054212;28;20029;-49
2022/01/13 05:20:23;;;;;;;9.00;6.18;;;14.00;94.00;;;;;;5054460;28;20029;-49
2022/01/13 05:22:49;;;;;;;8.75;6.10;;;;;;;;;;5054415;28;20028;-49
2022/01/13 05:25:16;;;;;;;10.30;6.78;;;14.00;95.60;;;;;;5054166;28;20118;-49
2022/01/13 05:27:43;;;;;;;10.32;5.95;;;;;;;;;;5054019;28;20028;-50
2022/01/13 05:30:09;;;;;;;9.60;5.82;;;;;;;;;;5054024;28;20104;-49
2022/01/13 05:32:35;;;;;;;9.73;6.45;;;;;;;;;;5053918;28;20108;-50
2022/01/13 05:35:01;;;;;;;9.80;6.60;;;;;;;;;;5053894;28;20529;-51
2022/01/13 05:37:28;;;;;;;10.25;6.50;;;;;;;;;;5053802;28;20048;-51
2022/01/13 05:39:54;;;;;;;9.32;5.93;;;;;;;;;;5053825;28;20056;-49
2022/01/13 05:42:20;;;;;;;9.18;6.15;;;;;;;;;;5053833;28;20537;-50
2022/01/13 05:44:47;;;;;;;8.05;5.93;;;;;;;;;;5053733;28;20402;-51
2022/01/13 05:47:13;;;;;;;9.07;6.05;;;14.00;94.90;;;;;;5053946;28;20282;-50
2022/01/13 05:49:41;;;;;;;9.02;6.25;;;13.90;95.40;;;;;;5053682;28;20027;-51
2022/01/13 05:52:07;;;;;;;7.28;5.55;;;;;;;;;;5053110;28;20044;-49
2022/01/13 05:54:33;;;;;;;8.80;6.07;;;;;;;;;;5053496;28;20108;-50
2022/01/13 05:56:59;;;;;;;8.85;5.85;;;;;;;;;;5053418;28;20116;-50
2022/01/13 05:59:25;;;;;;;9.73;6.32;;;;;;;;;;5053515;28;20071;-50
2022/01/13 06:01:52;;;;;;;9.63;5.90;;;;;;;;;;5053184;28;20039;-49
2022/01/13 06:04:18;;;;;;;7.90;5.43;;;;;;;;;;5053374;28;20025;-49
2022/01/13 06:06:44;;;;;;;7.80;5.00;;;;;;;;;;5053345;28;20219;-50
2022/01/13 06:09:10;;;;;;;9.07;5.50;;;;;;;;;;5053221;28;20033;-48
2022/01/13 06:11:39;;;;;;;7.38;5.43;;;;;;;;;;5053234;28;20166;-50
2022/01/13 06:14:05;;;;;;;7.18;5.45;;;14.50;93.90;;;;;;5053119;28;20103;-50
2022/01/13 06:16:31;;;;;;;6.75;5.05;;;;;;;;;;5053031;28;20029;-50
2022/01/13 06:18:57;;;;;;;6.38;4.55;;;;;;;;;;5053139;28;20027;-49
2022/01/13 06:21:23;;;;;;;6.55;5.05;;;;;;;;;;5053060;28;20033;-49
2022/01/13 06:23:49;;;;;;;6.18;4.07;;;;;;;;;;5052821;28;20021;-49
2022/01/13 06:26:15;;;;;;;5.85;4.38;;;;;;;;;;5052889;28;20025;-48
2022/01/13 06:28:41;;;;;;;6.63;4.72;;;;;;;;;;5052875;28;20067;-47
2022/01/13 06:31:07;;;;;;;6.50;4.53;;;;;;;;;;5052783;28;20033;-46
2022/01/13 06:33:34;;;;;;;9.35;3.67;;;;;;;;;;5052731;28;20036;-47
2022/01/13 06:36:00;;;;;;;6.18;4.25;;;;;;;;;;5052617;28;20108;-47
2022/01/13 06:38:26;;;;;;;6.60;4.28;;;;;;;;;;5052863;28;20132;-46
2022/01/13 06:40:52;;;;;;;5.97;4.03;;;;;;;;;;5052725;28;20029;-46
2022/01/13 06:43:18;;;;;;;4.97;4.10;;;;;;;;;;5052758;28;20029;-46
2022/01/13 06:45:44;;;;;;;6.68;4.70;;;;;;;;;;5052698;28;20029;-48
2022/01/13 06:48:10;;;;;;;6.47;4.40;;;;;;;;;;5052518;28;20025;-49
2022/01/13 06:50:36;;;;;;;8.15;4.28;;;;;;;;;;5052475;28;20040;-47
2022/01/13 06:53:03;;;;;;;7.18;4.57;;;;;;;;;;5052738;28;20033;-46
2022/01/13 06:55:29;;;;;;;6.03;4.30;;;;;;;;;;5052716;28;20028;-46
2022/01/13 06:57:55;;;;;;;10.93;4.70;;;;;;;;;;5052526;28;20049;-46
2022/01/13 07:00:22;;;;;;;5.90;4.10;;;;;;;;;;5052398;28;20025;-47
2022/01/13 07:02:48;;;;;;;6.00;4.13;;;;;;;;;;5051337;28;20052;-46
2022/01/13 07:05:14;;;;;;;6.10;4.30;;;;;;;;;;5052652;28;20040;-46
2022/01/13 07:07:41;;;;;;;5.22;3.80;;;;;;;;;;5052351;28;20025;-47
2022/01/13 07:10:08;;;;;;;5.38;4.00;;;15.80;94.70;;;;;;5052355;28;20025;-47
2022/01/13 07:12:35;;;;;;;5.38;3.95;;;;;;;;;;5052549;28;20082;-46
2022/01/13 07:15:01;;;;;;;5.28;4.20;;;;;;;;;;5052278;28;20472;-47
2022/01/13 07:17:27;;;;;;;7.30;3.83;;;;;;;;;;5052156;28;20036;-46
2022/01/13 07:19:53;;;;;;;5.70;4.43;;;;;;;;;;5052194;28;20029;-46
2022/01/13 07:22:19;;;;;;;6.28;3.88;;;15.80;93.40;;;;;;5052054;28;20075;-47
2022/01/13 07:24:46;;;;;;;10.05;4.47;;;15.70;93.40;;;;;;5052344;28;20024;-47
2022/01/13 07:27:12;;;;;;;5.40;4.03;;;;;;;;;;5051970;28;20025;-46
2022/01/13 07:29:42;;;;;;;9.38;4.18;;;;;;;;;;5052391;28;20114;-48
2022/01/13 07:32:08;;;;;;;5.70;3.65;;;;;;;;;;5052302;28;20073;-46
2022/01/13 07:34:34;;;;;;;6.05;4.07;;;;;;;;;;5051917;28;20057;-46
2022/01/13 07:37:00;;;;;;;5.30;3.88;;;;;;;;;;5051954;28;20072;-47
2022/01/13 07:39:26;;;;;;;7.35;4.35;;;;;;;;;;5051962;28;20498;-47
2022/01/13 07:41:52;;;;;;;5.82;4.40;;;;;;;;;;5052099;28;20441;-47
2022/01/13 07:44:18;;;;;;;8.10;4.63;;;;;;;;;;5052028;28;20029;-46
2022/01/13 07:46:45;;;;;;;7.38;4.90;;;;;;;;;;5052264;28;20082;-47
2022/01/13 07:49:11;;;;;;;6.22;4.70;;;;;;;;;;5052016;28;20032;-46
2022/01/13 07:51:37;;;;;;;7.15;4.80;;;;;;;;;;5051788;28;20029;-47
2022/01/13 07:54:03;;;;;;;6.95;4.25;;;;;;;;;;5050636;28;20079;-46
2022/01/13 07:56:29;;;;;;;6.65;5.10;;;;;;;;;;5050633;28;20205;-46
2022/01/13 07:58:55;;;;;;;6.70;4.15;;;;;;;;;;5051222;28;20028;-46
2022/01/13 08:01:21;;;;;;;5.55;4.38;;;;;;;;;;5051145;28;20101;-46
2022/01/13 08:03:47;;;;;;;6.68;4.68;;;;;;;;;;5050838;28;20616;-46
2022/01/13 08:06:13;;;;;;;6.30;4.65;;;;;;;;;;5051291;28;20353;-46
2022/01/13 08:08:40;;;;;;;5.65;4.35;;;;;;;;;;5051976;28;20029;-45
2022/01/13 08:11:07;;;;;;;5.72;3.65;;;15.70;94.80;;;;;;5051729;28;20029;-46
2022/01/13 08:13:33;;;;;;;5.50;4.20;;;;;;;;;;5052053;28;20055;-47
2022/01/13 08:16:02;;;;;;;9.38;4.40;;;15.70;94.40;;;;;;5055451;28;20052;-48
2022/01/13 08:21:13;;;;;;;4.80;4.05;;;;;;;;;;5055766;28;20067;-46
2022/01/13 08:23:40;;;;;;;7.18;4.22;;;15.80;93.50;;;;;;5055414;28;20051;-46
2022/01/13 08:26:06;;;;;;;7.45;4.07;;;;;;;;;;5055889;28;20364;-46
2022/01/13 08:28:32;;;;;;;5.18;4.00;;;;;;;;;;5055332;28;20057;-47
2022/01/13 08:30:58;;;;;;;4.85;4.13;;;;;;;;;;5055569;28;20044;-46
2022/01/13 08:33:24;;;;;;;4.90;3.70;;;;;;;;;;5055076;28;20541;-46
2022/01/13 08:35:53;;;;;;;4.60;3.50;;;15.80;91.70;;;;;;5055104;28;20025;-46
2022/01/13 08:38:20;;;;;;;4.93;3.53;;;;;;;;;;5055067;28;20037;-46
2022/01/13 08:40:54;;;;;;;4.90;3.60;;;15.70;94.50;;;;;;5055113;28;20510;-46
2022/01/13 08:43:21;;;;;;;5.07;3.88;;;;;;;;;;5055213;28;20383;-46
2022/01/13 08:45:47;;;;;;;4.95;3.95;;;;;;;;;;5055367;28;20447;-46
2022/01/13 08:48:14;;;;;;;4.28;3.75;;;;;;;;;;5054961;28;20028;-46
2022/01/13 08:50:40;;;;;;;5.22;3.95;;;;;;;;;;5054754;28;20033;-46
2022/01/13 08:53:06;;;;;;;4.28;3.63;;;;;;;;;;5053562;28;20052;-45
2022/01/13 08:55:33;;;;;;;4.72;3.38;;;;;;;;;;5054791;28;20112;-46
2022/01/13 08:57:59;;;;;;;5.20;3.35;;;;;;;;;;5054670;28;20140;-46
2022/01/13 09:00:25;;;;;;;4.97;3.75;;;;;;;;;;5054697;28;20116;-46
2022/01/13 09:02:51;;;;;;;6.45;4.03;;;;;;;;;;5054455;28;20045;-46
2022/01/13 09:05:19;;;;;;;5.05;4.05;;;15.80;94.30;;;;;;5054741;28;20036;-45
2022/01/13 09:07:45;;;;;;;5.45;3.90;;;;;;;;;;5054775;28;20479;-46
2022/01/13 09:10:12;;;;;;;4.35;3.70;;;15.80;94.20;;;;;;5054701;28;20052;-47
2022/01/13 09:12:38;;;;;;;5.70;4.25;;;;;;;;;;5054626;28;20029;-47
2022/01/13 09:15:25;;;;;;;4.38;3.63;;;;;;;;;;5054602;28;20052;-47
2022/01/13 09:17:53;;;;;;;3.60;2.83;;;;;;;;;;5054452;28;20128;-46
2022/01/13 09:20:19;;;;;;;5.63;3.60;;;;;;;;;;5054790;28;20033;-46
2022/01/13 09:22:45;;;;;;;4.55;3.78;;;;;;;;;;5054766;28;20035;-48
2022/01/13 09:25:11;;;;;;;5.30;3.90;;;;;;;;;;5052223;28;20036;-48
2022/01/13 09:27:42;;;;;;;5.15;3.70;;;15.80;93.90;;;;;;5054221;28;20033;-48
2022/01/13 09:30:09;;;;;;;5.40;3.90;;;15.90;93.90;;;;;;5054408;28;20021;-47
2022/01/13 09:32:36;;;;;;;4.85;3.60;;;;;;;;;;5054569;28;20025;-48
2022/01/13 09:35:04;;;;;;;5.43;4.10;;;15.90;94.00;;;;;;5054225;28;20025;-47
2022/01/13 09:37:31;;;;;;;4.47;3.17;;;;;;;;;;5054428;28;20376;-46
2022/01/13 09:39:57;;;;;;;5.07;3.30;;;;;;;;;;5054080;28;20464;-47
2022/01/13 09:42:29;;;;;;;4.80;3.40;;;15.90;93.80;;;;;;5054186;28;20559;-48
2022/01/13 09:44:57;;;;;;;4.75;3.88;;;;;;;;;;5054142;28;20057;-47
2022/01/13 09:47:23;;;;;;;4.90;3.63;;;;;;;;;;5054282;28;20495;-47
2022/01/13 09:49:50;;;;;;;4.28;3.08;;;;;;;;;;5053937;28;20040;-47
2022/01/13 09:52:16;;;;;;;4.55;3.42;;;;;;;;;;5054126;28;20028;-48
2022/01/13 09:54:42;;;;;;;5.03;3.60;;;;;;;;;;5053895;28;20060;-46
2022/01/13 09:57:08;;;;;;;6.22;3.70;;;15.90;93.80;;;;;;5053708;28;20037;-47
2022/01/13 09:59:34;;;;;;;5.45;4.07;;;;;;;;;;5053811;28;20387;-48
2022/01/13 10:02:00;;;;;;;4.57;3.58;;;;;;;;;;5053558;28;20053;-47
2022/01/13 10:04:42;;;;;;;5.97;3.90;;;15.90;94.00;;;;;;5053738;28;20033;-47
2022/01/13 10:07:08;;;;;;;4.70;3.80;;;;;;;;;;5053613;28;20056;-47
2022/01/13 10:09:52;;;;;;;5.10;3.70;;;15.80;94.00;;;;;;5053415;28;20549;-45
2022/01/13 10:12:28;;;;;;;4.88;3.75;;;15.80;93.70;;;;;;5053438;28;20472;-47
2022/01/13 10:18:00;;;;;;;4.18;3.70;;;;;;;;;;5053526;28;20052;-48
2022/01/13 10:20:26;;;;;;;4.65;3.72;;;;;;;;;;5053743;28;20390;-47
2022/01/13 10:22:53;;;;;;;5.25;4.15;;;;;;;;;;5053415;28;20033;-47
2022/01/13 10:25:37;;;;;;;4.30;3.53;;;15.80;90.70;;;;;;5053500;28;20025;-47
2022/01/13 10:28:23;;;;;;;3.90;3.50;;;16.00;90.90;;;;;;5053204;28;20102;-47
2022/01/13 10:30:52;;;;;;;5.53;3.83;;;15.70;93.70;;;;;;5053506;28;20040;-47
2022/01/13 10:33:22;;;;;;;6.20;4.23;;;15.80;93.70;;;;;;5053098;28;20021;-47
2022/01/13 10:35:51;;;;;;;4.75;3.47;;;15.80;93.90;;;;;;5053167;28;20025;-47
2022/01/13 10:38:17;;;;;;;5.82;4.13;;;;;;;;;;5052705;28;20037;-48
2022/01/13 10:40:48;;;;;;;5.13;4.10;;;15.90;90.80;;;;;;5052988;28;20040;-48
2022/01/13 10:43:23;;;;;;;5.50;4.10;;;15.80;90.80;;;;;;5052927;28;20040;-47
2022/01/13 10:45:56;;;;;;;5.38;4.20;;;15.80;90.70;;;;;;5052937;28;20021;-47
2022/01/13 10:48:30;;;;;;;4.80;3.88;;;15.70;90.70;;;;;;5052784;28;20436;-48
2022/01/13 10:50:56;;;;;;;5.10;3.40;;;;;;;;;;5052800;28;20547;-47
2022/01/13 10:53:38;;;;;;;5.40;4.22;;;15.70;90.50;;;;;;5052788;28;20056;-47
2022/01/13 10:56:06;;;;;;;4.95;3.78;;;;;;;;;;5052740;28;20041;-47
2022/01/13 10:58:37;;;;;;;5.35;3.95;;;15.60;90.60;;;;;;5052796;28;20025;-47
2022/01/13 11:01:04;;;;;;;4.85;3.90;;;15.70;93.50;;;;;;5052748;28;20199;-46
2022/01/13 11:03:32;;;;;;;5.30;3.65;;;;;;;;;;5052402;28;20041;-47
2022/01/13 11:06:00;;;;;;;7.43;4.47;;;15.70;93.40;;;;;;5052882;28;20037;-47
2022/01/13 11:08:26;;;;;;;5.07;4.28;;;;;;;;;;5052472;28;20021;-48
2022/01/13 11:10:53;;;;;;;6.85;4.22;;;;;;;;;;5051199;28;20074;-47
2022/01/13 11:13:21;;;;;;;5.40;3.85;;;15.70;93.30;;;;;;5052790;28;20096;-48
2022/01/13 11:15:51;;;;;;;5.57;4.13;;;;;;;;;;5051263;28;20487;-47
2022/01/13 11:18:20;;;;;;;5.93;4.28;;;15.70;90.40;;;;;;5052570;28;20083;-47
2022/01/13 11:20:48;;;;;;;5.07;3.85;;;15.60;91.80;;;;;;5052634;28;20044;-47
2022/01/13 11:23:16;;;;;;;5.65;3.97;;;15.70;93.30;;;;;;5052303;28;20033;-47
2022/01/13 11:25:47;;;;;;;5.13;3.97;;;15.80;92.00;;;;;;5052370;28;20032;-47
2022/01/13 11:28:13;;;;;;;6.82;4.20;;;;;;;;;;5052225;28;20032;-48
2022/01/13 11:30:39;;;;;;;7.35;4.43;;;;;;;;;;5052266;28;20029;-47
2022/01/13 11:33:05;;;;;;;5.28;3.80;;;;;;;;;;5052288;28;20033;-47
2022/01/13 11:35:35;;;;;;;5.65;3.88;;;15.70;93.30;;;;;;5052208;28;20110;-46
2022/01/13 11:38:03;;;;;;;5.90;4.22;;;15.70;93.00;;;;;;5050919;28;20029;-46
2022/01/13 11:40:29;;;;;;;5.43;4.20;;;;;;;;;;5052147;28;20032;-47
2022/01/13 11:42:55;;;;;;;7.53;4.95;;;15.60;91.90;;;;;;5052140;28;20439;-47
2022/01/13 11:45:22;;;;;;;7.22;4.55;;;15.70;93.10;;;;;;5052082;28;20017;-47
2022/01/13 11:47:49;;;;;;;6.95;4.65;;;;;;;;;;5052074;28;20467;-47
2022/01/13 11:50:20;;;;;;;6.47;4.53;;;15.70;93.00;;;;;;5055333;28;20060;-46
2022/01/13 11:52:51;;;;;;;5.50;4.22;;;15.60;93.00;;;;;;5056240;28;20104;-47
2022/01/13 11:55:34;;;;;;;5.70;4.10;;;15.70;90.30;;;;;;5056111;28;20031;-49
2022/01/13 11:58:18;;;;;;;6.78;4.72;;;15.70;90.20;;;;;;5055976;28;20478;-47
2022/01/13 12:00:48;;;;;;;6.82;4.45;;;15.60;93.10;;;;;;5056323;28;20387;-49
2022/01/13 12:03:29;;;;;;;6.07;4.65;;;15.60;90.30;;;;;;5055756;28;20511;-47
2022/01/13 12:05:56;;;;;;;6.63;4.55;;;15.70;91.40;;;;;;5055911;28;20032;-47
2022/01/13 12:08:56;;;;;;;6.10;4.53;;;15.80;90.30;;;;;;5056181;28;20383;-47
2022/01/13 12:11:56;;;;;;;7.22;4.38;;;15.60;90.40;;;;;;5056170;28;20124;-47
2022/01/13 12:14:24;;;;;;;7.50;4.40;;;15.70;90.30;;;;;;5055850;28;20446;-47
2022/01/13 12:16:55;;;;;;;8.75;4.95;;;15.60;90.30;;;;;;5055544;28;20040;-48
2022/01/13 12:19:34;;;;;;;6.75;4.55;;;15.60;90.30;;;;;;5055681;28;20029;-46
2022/01/13 12:22:07;;;;;;;6.28;4.57;;;;;;;;;;5055977;28;20047;-46
2022/01/13 12:24:47;;;;;;;7.18;5.10;;;15.60;93.00;;;;;;5055858;28;20052;-47
2022/01/13 12:27:13;;;;;;;6.43;4.35;;;;;;;;;;5055955;28;20039;-47
2022/01/13 12:29:46;;;;;;;7.28;4.90;;;15.60;90.10;;;;;;5055466;28;20464;-46
2022/01/13 12:32:14;;;;;;;7.13;5.40;;;;;;;;;;5055443;28;20039;-47
2022/01/13 12:34:49;;;;;;;6.05;4.90;;;15.60;90.10;;;;;;5055668;28;20028;-47
2022/01/13 12:37:15;;;;;;;8.50;4.97;;;;;;;;;;5055296;28;20445;-48
2022/01/13 12:39:57;;;;;;;8.95;5.60;;;15.60;90.20;;;;;;5055250;28;20078;-47
2022/01/13 12:42:38;;;;;;;6.75;5.20;;;15.50;92.90;;;;;;5055544;28;20500;-47
2022/01/13 12:47:52;;;;;;;7.70;4.90;;;;;;;;;;5055350;28;20083;-47
2022/01/13 12:50:18;;;;;;;8.45;5.18;;;;;;;;;;5055013;28;20047;-47
2022/01/13 12:52:44;;;;;;;7.75;5.55;;;;;;;;;;5055275;28;20029;-49
2022/01/13 12:55:10;;;;;;;7.95;4.90;;;;;;;;;;5055257;28;20025;-48
2022/01/13 12:57:43;;;;;;;8.52;5.90;;;15.50;93.20;;;;;;5054872;28;20037;-47
2022/01/13 13:00:09;;;;;;;7.45;5.60;;;;;;;;;;5054837;28;20028;-47
2022/01/13 13:02:35;;;;;;;9.65;5.18;;;;;;;;;;5054647;28;20051;-48
2022/01/13 13:05:01;;;;;;;8.82;5.63;;;;;;;;;;5054888;28;20100;-48
2022/01/13 13:07:28;;;;;;;8.88;5.70;;;15.60;93.10;;;;;;5054802;28;20029;-47
2022/01/13 13:10:06;;;;;;;8.60;5.47;;;15.70;90.20;;;;;;5054897;28;20140;-47
2022/01/13 13:12:35;;;;;;;6.97;4.78;;;;;;;;;;5054893;28;20017;-47
2022/01/13 13:15:40;;;;;;;7.72;5.53;;;;;;;;;;5054634;28;20032;-46
2022/01/13 13:17:56;;;;;;;6.75;4.82;;;;;;;;;;5054258;28;20586;-48
2022/01/13 13:20:28;;;;;;;8.73;4.85;;;15.80;90.10;;;;;;5054527;28;20104;-47
2022/01/13 13:22:58;;;;;;;6.88;4.55;;;15.90;92.80;;;;;;5054488;28;20083;-47
2022/01/13 13:25:30;;;;;;;7.65;4.80;;;15.80;89.90;;;;;;5054522;28;20108;-47
2022/01/13 13:27:56;;;;;;;8.82;5.15;;;;;;;;;;5054342;28;20033;-47
2022/01/13 13:30:22;;;;;;;7.53;4.68;;;;;;;;;;5054306;28;20033;-46
2022/01/13 13:32:52;;;;;;;9.05;5.35;;;16.00;92.90;;;;;;5054542;28;20020;-47
2022/01/13 13:35:20;;;;;;;8.85;4.95;;;16.00;90.00;;;;;;5054226;28;20029;-48
2022/01/13 13:37:46;;;;;;;7.80;4.80;;;16.10;91.50;;;;;;5054129;28;20044;-47
2022/01/13 13:40:22;;;;;;;9.13;5.80;;;16.20;89.70;;;;;;5054158;28;20064;-48
2022/01/13 13:43:06;;;;;;;8.10;4.88;;;16.20;89.70;;;;;;5054491;28;20033;-46
2022/01/13 13:45:32;;;;;;;7.70;5.15;;;;;;;;;;5054025;28;20021;-47
2022/01/13 13:48:00;;;;;;;8.02;5.22;;;16.20;91.20;;;;;;5053936;28;20124;-47
2022/01/13 13:50:27;;;;;;;7.35;4.68;;;16.20;92.70;;;;;;5054009;28;20060;-47
2022/01/13 13:53:13;;;;;;;6.68;4.65;;;16.30;89.40;;;;;;5054056;28;20036;-46
2022/01/13 13:55:54;;;;;;;7.95;5.28;;;16.30;92.60;;;;;;5053923;28;20027;-47
2022/01/13 13:58:21;;;;;;;5.90;4.20;;;16.30;92.60;;;;;;5053747;28;20072;-48
2022/01/13 14:00:47;;;;;;;5.63;4.25;;;;;;;;;;5054127;28;20017;-47
2022/01/13 14:03:14;;;;;;;6.65;4.68;;;;;;;;;;5053495;28;20048;-47
2022/01/13 14:05:41;;;;;;;7.35;4.63;;;;;;;;;;5053895;28;20029;-48
2022/01/13 14:08:08;;;;;;;6.80;4.63;;;16.40;92.50;;;;;;5053593;28;20033;-47
2022/01/13 14:10:35;;;;;;;10.40;4.65;;;;;;;;;;5053588;28;20055;-48
2022/01/13 14:13:09;;;;;;;5.95;4.25;;;16.30;89.10;;;;;;5052979;28;20029;-47
2022/01/13 14:15:40;;;;;;;7.82;4.65;;;16.40;89.10;;;;;;5053445;28;20056;-48
2022/01/13 14:18:18;;;;;;;7.63;4.93;;;16.40;89.00;;;;;;5053355;28;20526;-48
2022/01/13 14:20:56;;;;;;;9.48;4.50;;;16.30;92.40;;;;;;5053438;28;20033;-48
2022/01/13 14:23:29;;;;;;;8.00;4.82;;;16.30;89.00;;;;;;5053148;28;20024;-49
2022/01/13 14:26:22;;;;;;;6.60;4.63;;;16.30;92.50;;;;;;5053173;28;20029;-48
2022/01/13 14:28:51;;;;;;;5.90;4.60;;;16.30;92.50;;;;;;5051082;28;20431;-48
2022/01/13 14:31:17;;;;;;;7.57;5.00;;;;;;;;;;5053081;28;20051;-45
2022/01/13 14:33:45;;;;;;;7.05;4.70;;;16.40;92.30;;;;;;5053069;28;20032;-49
2022/01/13 14:36:25;;;;;;;6.93;4.93;;;16.30;88.90;;;;;;5052992;28;20025;-49
2022/01/13 14:38:56;;;;;;;;;;;16.30;92.70;;;;;;5053608;28;20095;-47
2022/01/13 14:41:28;;;;;;;7.43;4.93;;;16.40;89.20;;;;;;5052969;28;20359;-48
2022/01/13 14:44:10;;;;;;;6.93;4.07;;;16.40;89.50;;;;;;5052936;28;20025;-50